createdAt,value
2022-10-22T00:01:11.539Z,100.00
2022-10-22T00:03:38.167Z,100.00
2022-10-22T00:06:06.742Z,100.00
2022-10-22T00:08:33.398Z,100.00
2022-10-22T00:11:00.149Z,100.00
2022-10-22T00:13:26.813Z,100.00
2022-10-22T00:15:53.382Z,100.00
2022-10-22T00:18:19.974Z,100.00
2022-10-22T00:20:46.574Z,100.00
2022-10-22T00:23:14.767Z,100.00
2022-10-22T00:25:41.387Z,100.00
2022-10-22T00:28:08.004Z,100.00
2022-10-22T00:30:34.499Z,100.00
2022-10-22T00:33:01.086Z,100.00
2022-10-22T00:35:27.579Z,100.00
2022-10-22T00:37:54.123Z,100.00
2022-10-22T00:40:22.046Z,100.00
2022-10-22T00:42:48.600Z,100.00
2022-10-22T00:45:19.169Z,100.00
2022-10-22T00:47:51.628Z,100.00
2022-10-22T00:50:23.566Z,100.00
2022-10-22T00:52:50.612Z,100.00
2022-10-22T00:55:18.337Z,100.00
2022-10-22T00:57:47.254Z,100.00
2022-10-22T01:00:15.042Z,100.00
2022-10-22T01:02:42.211Z,100.00
2022-10-22T01:05:09.717Z,100.00
2022-10-22T01:07:41.828Z,100.00
2022-10-22T01:10:16.098Z,100.00
2022-10-22T01:12:51.351Z,100.00
2022-10-22T01:15:24.559Z,100.00
2022-10-22T01:17:59.347Z,100.00
2022-10-22T01:20:53.313Z,100.00
2022-10-22T01:23:50.444Z,100.00
2022-10-22T01:26:27.420Z,100.00
2022-10-22T01:29:02.505Z,100.00
2022-10-22T01:31:34.749Z,100.00
2022-10-22T01:34:03.344Z,100.00
2022-10-22T01:36:32.433Z,100.00
2022-10-22T01:39:02.145Z,100.00
2022-10-22T01:41:29.173Z,100.00
2022-10-22T01:43:55.888Z,100.00
2022-10-22T01:46:25.523Z,100.00
2022-10-22T01:49:10.553Z,100.00
2022-10-22T01:51:49.394Z,100.00
2022-10-22T01:54:26.023Z,100.00
2022-10-22T01:57:04.605Z,100.00
2022-10-22T01:59:39.378Z,100.00
2022-10-22T02:02:13.267Z,100.00
2022-10-22T02:04:44.627Z,100.00
2022-10-22T02:07:15.358Z,100.00
2022-10-22T02:09:44.682Z,100.00
2022-10-22T02:12:13.437Z,100.00
2022-10-22T02:14:43.447Z,100.00
2022-10-22T02:17:16.222Z,100.00
2022-10-22T02:19:48.283Z,100.00
2022-10-22T02:22:14.882Z,100.00
2022-10-22T02:24:41.608Z,100.00
2022-10-22T02:27:15.658Z,100.00
2022-10-22T02:29:47.429Z,100.00
2022-10-22T02:32:20.746Z,100.00
2022-10-22T02:34:49.821Z,100.00
2022-10-22T02:37:18.303Z,100.00
2022-10-22T02:39:45.379Z,100.00
2022-10-22T02:42:12.493Z,100.00
2022-10-22T02:44:39.103Z,100.00
2022-10-22T02:47:05.655Z,100.00
2022-10-22T02:49:33.663Z,100.00
2022-10-22T02:52:00.247Z,100.00
2022-10-22T02:54:26.852Z,100.00
2022-10-22T02:56:53.385Z,100.00
2022-10-22T02:59:20.008Z,100.00
2022-10-22T03:01:46.507Z,100.00
2022-10-22T03:04:13.110Z,100.00
2022-10-22T03:06:41.477Z,100.00
2022-10-22T03:09:07.982Z,100.00
2022-10-22T03:11:34.547Z,100.00
2022-10-22T03:14:01.057Z,100.00
2022-10-22T03:16:27.567Z,100.00
2022-10-22T03:18:54.081Z,100.00
2022-10-22T03:21:28.357Z,100.00
2022-10-22T03:23:56.724Z,100.00
2022-10-22T03:26:24.454Z,100.00
2022-10-22T03:28:51.448Z,100.00
2022-10-22T03:31:17.955Z,100.00
2022-10-22T03:33:44.563Z,100.00
2022-10-22T03:36:11.294Z,100.00
2022-10-22T03:38:39.460Z,100.00
2022-10-22T03:41:07.688Z,100.00
2022-10-22T03:43:35.471Z,100.00
2022-10-22T03:46:02.012Z,100.00
2022-10-22T03:48:28.521Z,100.00
2022-10-22T03:50:55.097Z,100.00
2022-10-22T03:53:21.753Z,100.00
2022-10-22T03:55:48.377Z,100.00
2022-10-22T03:58:16.337Z,100.00
2022-10-22T04:00:43.044Z,100.00
2022-10-22T04:03:09.616Z,100.00
2022-10-22T04:05:36.134Z,100.00
2022-10-22T04:08:02.854Z,100.00
2022-10-22T04:10:29.417Z,100.00
2022-10-22T04:12:55.988Z,100.00
2022-10-22T04:15:23.976Z,100.00
2022-10-22T04:17:50.512Z,100.00
2022-10-22T04:20:17.254Z,100.00
2022-10-22T04:22:43.757Z,100.00
2022-10-22T04:25:10.391Z,100.00
2022-10-22T04:27:37.288Z,100.00
2022-10-22T04:30:04.652Z,100.00
2022-10-22T04:32:32.562Z,100.00
2022-10-22T04:34:59.074Z,100.00
2022-10-22T04:37:25.605Z,100.00
2022-10-22T04:39:52.114Z,100.00
2022-10-22T04:42:18.725Z,100.00
2022-10-22T04:44:45.237Z,100.00
2022-10-22T04:47:11.907Z,100.00
2022-10-22T04:49:40.377Z,100.00
2022-10-22T04:52:06.870Z,100.00
2022-10-22T04:54:33.404Z,100.00
2022-10-22T04:57:00.173Z,100.00
2022-10-22T04:59:26.717Z,100.00
2022-10-22T05:01:53.257Z,100.00
2022-10-22T05:04:20.049Z,100.00
2022-10-22T05:06:47.891Z,100.00
2022-10-22T05:09:17.056Z,100.00
2022-10-22T05:11:45.744Z,100.00
2022-10-22T05:14:12.738Z,100.00
2022-10-22T05:16:39.440Z,100.00
2022-10-22T05:19:07.205Z,100.00
2022-10-22T05:21:34.283Z,100.00
2022-10-22T05:24:02.164Z,100.00
2022-10-22T05:26:29.450Z,100.00
2022-10-22T05:28:56.344Z,100.00
2022-10-22T05:31:23.676Z,100.00
2022-10-22T05:33:50.269Z,100.00
2022-10-22T05:36:18.701Z,100.00
2022-10-22T05:38:45.963Z,100.00
2022-10-22T05:41:15.881Z,100.00
2022-10-22T05:43:42.675Z,100.00
2022-10-22T05:46:10.760Z,100.00
2022-10-22T05:48:37.819Z,100.00
2022-10-22T05:51:05.704Z,100.00
2022-10-22T05:53:32.990Z,100.00
2022-10-22T05:56:03.904Z,100.00
2022-10-22T05:58:32.448Z,100.00
2022-10-22T06:01:03.534Z,100.00
2022-10-22T06:03:30.100Z,100.00
2022-10-22T06:05:56.644Z,100.00
2022-10-22T06:08:23.156Z,100.00
2022-10-22T06:10:49.686Z,100.00
2022-10-22T06:13:16.246Z,100.00
2022-10-22T06:15:44.116Z,100.00
2022-10-22T06:18:10.858Z,100.00
2022-10-22T06:20:37.649Z,100.00
2022-10-22T06:23:04.155Z,100.00
2022-10-22T06:25:30.638Z,100.00
2022-10-22T06:27:57.271Z,100.00
2022-10-22T06:30:23.799Z,100.00
2022-10-22T06:32:51.710Z,100.00
2022-10-22T06:35:18.259Z,100.00
2022-10-22T06:37:44.933Z,100.00
2022-10-22T06:40:12.565Z,100.00
2022-10-22T06:42:39.410Z,100.00
2022-10-22T06:45:07.912Z,100.00
2022-10-22T06:47:34.463Z,100.00
2022-10-22T06:50:02.473Z,100.00
2022-10-22T06:52:28.959Z,100.00
2022-10-22T06:54:55.588Z,100.00
2022-10-22T06:57:22.097Z,100.00
2022-10-22T06:59:48.617Z,100.00
2022-10-22T07:02:15.165Z,100.00
2022-10-22T07:04:41.786Z,100.00
2022-10-22T07:07:09.661Z,100.00
2022-10-22T07:09:36.191Z,100.00
2022-10-22T07:12:02.715Z,100.00
2022-10-22T07:14:29.231Z,100.00
2022-10-22T07:16:57.885Z,100.00
2022-10-22T07:19:24.386Z,100.00
2022-10-22T07:21:50.929Z,100.00
2022-10-22T07:24:18.806Z,100.00
2022-10-22T07:26:45.377Z,100.00
2022-10-22T07:29:11.884Z,100.00
2022-10-22T07:31:38.546Z,99.66
2022-10-22T07:34:05.609Z,99.00
2022-10-22T07:36:32.191Z,99.09
2022-10-22T07:38:59.484Z,98.45
2022-10-22T07:41:28.702Z,97.87
2022-10-22T07:43:55.551Z,97.52
2022-10-22T07:46:22.381Z,98.28
2022-10-22T07:48:49.054Z,98.67
2022-10-22T07:51:16.544Z,98.25
2022-10-22T07:53:43.080Z,98.72
2022-10-22T07:56:10.561Z,99.08
2022-10-22T07:58:38.496Z,99.12
2022-10-22T08:01:05.149Z,99.99
2022-10-22T08:03:32.815Z,100.00
2022-10-22T08:06:00.189Z,100.00
2022-10-22T08:08:29.846Z,100.00
2022-10-22T08:10:59.866Z,100.00
2022-10-22T08:13:26.829Z,100.00
2022-10-22T08:15:57.361Z,100.00
2022-10-22T08:18:24.717Z,100.00
2022-10-22T08:20:51.450Z,100.00
2022-10-22T08:23:18.254Z,100.00
2022-10-22T08:25:44.853Z,100.00
2022-10-22T08:28:11.460Z,100.00
2022-10-22T08:30:38.393Z,100.00
2022-10-22T08:33:06.285Z,100.00
2022-10-22T08:35:32.881Z,99.82
2022-10-22T08:37:59.409Z,100.00
2022-10-22T08:40:30.411Z,99.21
2022-10-22T08:43:17.359Z,98.65
2022-10-22T08:45:50.512Z,98.13
2022-10-22T08:48:35.056Z,98.30
2022-10-22T08:51:01.663Z,98.30
2022-10-22T08:53:36.653Z,98.12
2022-10-22T08:56:03.266Z,97.68
2022-10-22T08:58:35.836Z,96.98
2022-10-22T09:01:06.208Z,96.49
2022-10-22T09:03:45.421Z,95.81
2022-10-22T09:06:15.539Z,97.37
2022-10-22T09:08:44.729Z,95.89
2022-10-22T09:11:22.308Z,95.37
2022-10-22T09:13:49.785Z,95.77
2022-10-22T09:16:19.238Z,96.09
2022-10-22T09:18:58.659Z,95.76
2022-10-22T09:21:33.895Z,94.80
2022-10-22T09:24:06.939Z,94.56
2022-10-22T09:26:38.427Z,94.17
2022-10-22T09:29:05.396Z,94.68
2022-10-22T09:31:33.205Z,93.23
2022-10-22T09:34:01.516Z,92.06
2022-10-22T09:36:29.025Z,92.67
2022-10-22T09:38:55.587Z,90.76
2022-10-22T09:41:25.499Z,91.16
2022-10-22T09:43:52.397Z,91.71
2022-10-22T09:46:20.887Z,89.84
2022-10-22T09:48:50.463Z,89.95
2022-10-22T09:51:22.079Z,90.89
2022-10-22T09:53:56.745Z,90.73
2022-10-22T09:56:27.472Z,89.63
2022-10-22T09:58:56.944Z,89.69
2022-10-22T10:01:26.549Z,88.39
2022-10-22T10:03:53.284Z,89.26
2022-10-22T10:06:22.933Z,88.45
2022-10-22T10:08:50.300Z,88.15
2022-10-22T10:11:29.092Z,86.16
2022-10-22T10:14:07.583Z,84.80
2022-10-22T10:16:42.936Z,86.86
2022-10-22T10:19:33.530Z,86.84
2022-10-22T10:22:12.033Z,87.58
2022-10-22T10:24:50.422Z,86.99
2022-10-22T10:27:25.712Z,82.90
2022-10-22T10:29:58.799Z,81.62
2022-10-22T10:32:37.361Z,79.98
2022-10-22T10:35:15.569Z,79.54
2022-10-22T10:37:49.896Z,77.90
2022-10-22T10:40:26.596Z,77.29
2022-10-22T10:42:58.024Z,76.87
2022-10-22T10:45:32.985Z,75.64
2022-10-22T10:48:28.348Z,74.97
2022-10-22T10:51:06.274Z,75.67
2022-10-22T10:53:57.725Z,75.24
2022-10-22T10:56:38.359Z,74.93
2022-10-22T10:59:16.656Z,72.39
2022-10-22T11:01:59.451Z,73.37
2022-10-22T11:05:10.788Z,74.01
2022-10-22T11:07:42.833Z,74.91
2022-10-22T11:10:22.232Z,75.84
2022-10-22T11:12:52.909Z,72.58
2022-10-22T11:15:27.374Z,72.83
2022-10-22T11:18:02.307Z,73.12
2022-10-22T11:20:47.085Z,73.96
2022-10-22T11:23:20.451Z,74.72
2022-10-22T11:25:51.196Z,74.20
2022-10-22T11:28:23.997Z,76.03
2022-10-22T11:30:58.167Z,77.56
2022-10-22T11:33:28.690Z,75.56
2022-10-22T11:35:57.804Z,75.51
2022-10-22T11:38:26.830Z,72.38
2022-10-22T11:41:00.417Z,71.53
2022-10-22T11:43:30.840Z,68.92
2022-10-22T11:46:01.699Z,69.51
2022-10-22T11:48:36.214Z,68.43
2022-10-22T11:51:03.689Z,68.71
2022-10-22T11:53:32.658Z,69.35
2022-10-22T11:56:20.017Z,68.07
2022-10-22T11:58:50.828Z,68.36
2022-10-22T12:01:27.586Z,65.68
2022-10-22T12:04:18.851Z,67.39
2022-10-22T12:06:53.892Z,67.35
2022-10-22T12:09:23.568Z,68.36
2022-10-22T12:11:51.757Z,69.12
2022-10-22T12:14:21.663Z,70.35
2022-10-22T12:16:56.920Z,71.17
2022-10-22T12:19:27.257Z,69.19
2022-10-22T12:21:56.001Z,67.03
2022-10-22T12:24:25.100Z,68.15
2022-10-22T12:26:53.150Z,67.39
2022-10-22T12:29:22.005Z,65.89
2022-10-22T12:31:48.670Z,66.03
2022-10-22T12:34:17.012Z,66.12
2022-10-22T12:36:44.061Z,65.97
2022-10-22T12:39:15.081Z,67.37
2022-10-22T12:41:42.594Z,66.92
2022-10-22T12:44:14.196Z,66.91
2022-10-22T12:46:42.716Z,67.83
2022-10-22T12:49:15.032Z,68.07
2022-10-22T12:51:42.052Z,67.74
2022-10-22T12:54:15.012Z,67.88
2022-10-22T12:56:41.701Z,67.86
2022-10-22T12:59:18.094Z,68.66
2022-10-22T13:01:44.857Z,68.94
2022-10-22T13:04:22.040Z,71.13
2022-10-22T13:06:50.026Z,72.51
2022-10-22T13:09:22.577Z,74.17
2022-10-22T13:11:54.961Z,75.67
2022-10-22T13:14:27.779Z,75.88
2022-10-22T13:17:12.190Z,76.49
2022-10-22T13:19:42.112Z,77.50
2022-10-22T13:22:30.583Z,78.00
2022-10-22T13:27:31.513Z,73.80
2022-10-22T13:30:03.137Z,71.23
2022-10-22T13:32:32.036Z,69.14
2022-10-22T13:35:00.593Z,70.61
2022-10-22T13:37:29.471Z,69.53
2022-10-22T13:39:56.143Z,70.32
2022-10-22T13:42:22.774Z,70.90
2022-10-22T13:44:49.269Z,71.59
2022-10-22T13:47:25.443Z,72.75
2022-10-22T13:49:53.444Z,73.46
2022-10-22T13:52:28.576Z,73.28
2022-10-22T13:54:55.143Z,75.18
2022-10-22T13:57:21.668Z,74.11
2022-10-22T13:59:48.203Z,75.05
2022-10-22T14:02:14.780Z,75.41
2022-10-22T14:04:42.828Z,75.92
2022-10-22T14:07:13.259Z,77.30
2022-10-22T14:09:39.797Z,77.65
2022-10-22T14:12:11.931Z,78.64
2022-10-22T14:14:38.471Z,78.94
2022-10-22T14:17:05.809Z,79.71
2022-10-22T14:19:32.432Z,79.13
2022-10-22T14:22:00.342Z,79.52
2022-10-22T14:24:26.833Z,78.26
2022-10-22T14:26:53.365Z,78.31
2022-10-22T14:29:20.005Z,78.89
2022-10-22T14:31:46.506Z,78.97
2022-10-22T14:34:15.574Z,79.58
2022-10-22T14:36:42.148Z,80.20
2022-10-22T14:39:10.000Z,79.12
2022-10-22T14:41:36.566Z,80.29
2022-10-22T14:44:03.222Z,80.31
2022-10-22T14:46:29.718Z,79.75
2022-10-22T14:48:56.229Z,77.53
2022-10-22T14:51:22.751Z,76.75
2022-10-22T14:53:49.447Z,76.09
2022-10-22T14:56:19.320Z,76.56
2022-10-22T14:58:45.885Z,76.89
2022-10-22T15:01:12.902Z,77.49
2022-10-22T15:03:39.517Z,77.59
2022-10-22T15:06:06.925Z,77.19
2022-10-22T15:08:33.729Z,77.89
2022-10-22T15:11:01.520Z,77.85
2022-10-22T15:13:30.364Z,77.95
2022-10-22T15:15:58.010Z,78.79
2022-10-22T15:18:25.558Z,79.54
2022-10-22T15:20:56.638Z,79.01
2022-10-22T15:23:23.135Z,78.89
2022-10-22T15:25:49.676Z,79.71
2022-10-22T15:28:16.184Z,80.37
2022-10-22T15:30:44.160Z,80.29
2022-10-22T15:33:10.658Z,80.90
2022-10-22T15:35:37.368Z,80.89
2022-10-22T15:38:03.896Z,81.11
2022-10-22T15:40:30.392Z,81.98
2022-10-22T15:42:57.012Z,83.14
2022-10-22T15:45:23.513Z,83.66
2022-10-22T15:47:51.412Z,84.51
2022-10-22T15:50:18.246Z,84.46
2022-10-22T15:52:44.792Z,85.16
2022-10-22T15:57:43.316Z,86.30
2022-10-22T16:00:11.285Z,86.19
2022-10-22T16:02:37.913Z,86.26
2022-10-22T16:05:06.989Z,86.84
2022-10-22T16:07:33.642Z,86.76
2022-10-22T16:10:00.155Z,86.77
2022-10-22T16:12:26.666Z,86.48
2022-10-22T16:14:53.223Z,86.46
2022-10-22T16:17:19.768Z,86.64
2022-10-22T16:19:47.821Z,86.49
2022-10-22T16:22:15.759Z,86.27
2022-10-22T16:24:43.124Z,86.71
2022-10-22T16:27:10.128Z,86.72
2022-10-22T16:29:37.498Z,86.67
2022-10-22T16:32:04.364Z,85.91
2022-10-22T16:34:30.855Z,86.36
2022-10-22T16:36:57.506Z,86.63
2022-10-22T16:39:25.455Z,87.20
2022-10-22T16:41:51.981Z,86.63
2022-10-22T16:44:18.581Z,86.53
2022-10-22T16:46:45.362Z,87.04
2022-10-22T16:49:12.194Z,87.85
2022-10-22T16:51:39.221Z,87.52
2022-10-22T16:54:08.414Z,87.93
2022-10-22T16:56:39.682Z,88.24
2022-10-22T16:59:06.543Z,88.50
2022-10-22T17:01:37.871Z,89.11
2022-10-22T17:04:07.069Z,89.04
2022-10-22T17:06:33.592Z,89.13
2022-10-22T17:09:00.289Z,89.62
2022-10-22T17:11:26.877Z,90.14
2022-10-22T17:13:54.797Z,88.61
2022-10-22T17:16:23.489Z,88.69
2022-10-22T17:18:50.003Z,89.18
2022-10-22T17:21:17.551Z,88.65
2022-10-22T17:23:44.437Z,90.08
2022-10-22T17:26:16.043Z,88.62
2022-10-22T17:28:42.844Z,87.80
2022-10-22T17:31:16.943Z,88.52
2022-10-22T17:33:43.957Z,89.04
2022-10-22T17:36:11.305Z,88.56
2022-10-22T17:38:38.541Z,88.34
2022-10-22T17:41:06.936Z,89.05
2022-10-22T17:43:36.024Z,88.93
2022-10-22T17:46:04.208Z,89.57
2022-10-22T17:48:32.297Z,89.49
2022-10-22T17:50:59.410Z,89.58
2022-10-22T17:53:26.437Z,89.98
2022-10-22T17:55:59.277Z,91.31
2022-10-22T17:58:25.809Z,92.47
2022-10-22T18:00:52.490Z,92.21
2022-10-22T18:03:19.009Z,92.56
2022-10-22T18:05:46.889Z,93.50
2022-10-22T18:08:13.408Z,93.52
2022-10-22T18:10:40.619Z,93.66
2022-10-22T18:13:07.136Z,93.91
2022-10-22T18:15:33.805Z,94.26
2022-10-22T18:18:00.311Z,94.90
2022-10-22T18:20:26.867Z,95.25
2022-10-22T18:22:55.205Z,95.64
2022-10-22T18:25:22.268Z,96.26
2022-10-22T18:27:48.836Z,97.35
2022-10-22T18:30:15.946Z,98.07
2022-10-22T18:32:42.558Z,98.57
2022-10-22T18:35:09.290Z,99.09
2022-10-22T18:37:35.951Z,98.79
2022-10-22T18:40:05.799Z,99.72
2022-10-22T18:42:36.645Z,100.00
2022-10-22T18:45:06.891Z,100.00
2022-10-22T18:47:33.455Z,100.00
2022-10-22T18:49:59.975Z,100.00
2022-10-22T18:52:26.480Z,100.00
2022-10-22T18:54:53.005Z,100.00
2022-10-22T18:57:20.865Z,100.00
2022-10-22T18:59:47.402Z,100.00
2022-10-22T19:02:13.891Z,100.00
2022-10-22T19:04:40.520Z,100.00
2022-10-22T19:07:07.058Z,100.00
2022-10-22T19:09:33.981Z,100.00
2022-10-22T19:12:01.089Z,100.00
2022-10-22T19:14:28.942Z,100.00
2022-10-22T19:16:55.486Z,100.00
2022-10-22T19:19:22.463Z,100.00
2022-10-22T19:21:49.538Z,100.00
2022-10-22T19:24:17.697Z,100.00
2022-10-22T19:26:44.911Z,100.00
2022-10-22T19:29:11.458Z,100.00
2022-10-22T19:31:39.387Z,100.00
2022-10-22T19:34:06.033Z,100.00
2022-10-22T19:36:32.803Z,100.00
2022-10-22T19:39:02.722Z,100.00
2022-10-22T19:41:33.542Z,100.00
2022-10-22T19:44:00.634Z,100.00
2022-10-22T19:46:28.943Z,100.00
2022-10-22T19:48:56.815Z,100.00
2022-10-22T19:51:25.476Z,100.00
2022-10-22T19:53:57.451Z,100.00
2022-10-22T19:56:23.963Z,100.00
2022-10-22T19:58:50.468Z,100.00
2022-10-22T20:01:18.440Z,100.00
2022-10-22T20:03:45.239Z,100.00
2022-10-22T20:06:14.836Z,100.00
2022-10-22T20:08:41.443Z,100.00
2022-10-22T20:11:10.580Z,100.00
2022-10-22T20:16:09.565Z,100.00
2022-10-22T20:18:36.720Z,100.00
2022-10-22T20:21:04.268Z,100.00
2022-10-22T20:23:32.546Z,100.00
2022-10-22T20:25:59.275Z,100.00
2022-10-22T20:28:25.905Z,100.00
2022-10-22T20:30:52.453Z,100.00
2022-10-22T20:33:18.995Z,100.00
2022-10-22T20:35:45.494Z,100.00
2022-10-22T20:38:14.776Z,100.00
2022-10-22T20:40:42.642Z,100.00
2022-10-22T20:43:11.702Z,100.00
2022-10-22T20:45:38.995Z,100.00
2022-10-22T20:48:05.984Z,100.00
2022-10-22T20:50:33.129Z,100.00
2022-10-22T20:52:59.712Z,100.00
2022-10-22T20:55:26.848Z,100.00
2022-10-22T20:57:55.195Z,100.00
2022-10-22T21:00:21.735Z,100.00
2022-10-22T21:02:48.380Z,100.00
2022-10-22T21:05:14.969Z,100.00
2022-10-22T21:07:41.760Z,100.00
2022-10-22T21:10:09.008Z,100.00
2022-10-22T21:12:35.715Z,100.00
2022-10-22T21:15:04.625Z,100.00
2022-10-22T21:17:33.243Z,100.00
2022-10-22T21:19:59.985Z,100.00
2022-10-22T21:22:26.732Z,100.00
2022-10-22T21:24:53.265Z,100.00
2022-10-22T21:27:24.412Z,100.00
2022-10-22T21:29:50.940Z,100.00
2022-10-22T21:32:18.815Z,100.00
2022-10-22T21:34:45.353Z,100.00
2022-10-22T21:37:11.997Z,100.00
2022-10-22T21:39:41.947Z,100.00
2022-10-22T21:42:08.835Z,100.00
2022-10-22T21:44:35.376Z,100.00
2022-10-22T21:47:01.896Z,100.00
2022-10-22T21:49:29.992Z,100.00
2022-10-22T21:51:56.638Z,100.00
2022-10-22T21:54:23.322Z,100.00
2022-10-22T21:56:49.824Z,100.00
2022-10-22T21:59:16.439Z,100.00
2022-10-22T22:01:43.131Z,100.00
2022-10-22T22:04:09.731Z,100.00
2022-10-22T22:06:38.224Z,100.00
2022-10-22T22:09:05.552Z,100.00
2022-10-22T22:11:32.233Z,100.00
2022-10-22T22:13:59.333Z,100.00
2022-10-22T22:16:28.685Z,100.00
2022-10-22T22:18:56.278Z,100.00
2022-10-22T22:21:22.870Z,100.00
2022-10-22T22:23:51.187Z,100.00
2022-10-22T22:26:25.207Z,100.00
2022-10-22T22:28:55.057Z,100.00
2022-10-22T22:31:25.727Z,100.00
2022-10-22T22:33:57.759Z,100.00
2022-10-22T22:36:24.317Z,100.00
2022-10-22T22:38:55.389Z,100.00
2022-10-22T22:41:22.199Z,100.00
2022-10-22T22:43:48.786Z,100.00
2022-10-22T22:46:15.435Z,100.00
2022-10-22T22:48:41.935Z,100.00
2022-10-22T22:51:09.929Z,100.00
2022-10-22T22:53:36.591Z,100.00
2022-10-22T22:56:07.975Z,100.00
2022-10-22T22:58:34.760Z,100.00
2022-10-22T23:01:23.256Z,100.00
2022-10-22T23:03:55.833Z,100.00
2022-10-22T23:06:22.771Z,100.00
2022-10-22T23:08:50.567Z,100.00
2022-10-22T23:11:20.015Z,100.00
2022-10-22T23:13:47.181Z,100.00
2022-10-22T23:16:15.748Z,100.00
2022-10-22T23:18:42.745Z,100.00
2022-10-22T23:21:14.000Z,100.00
2022-10-22T23:23:43.139Z,100.00
2022-10-22T23:26:11.581Z,100.00
2022-10-22T23:28:39.945Z,100.00
2022-10-22T23:31:06.721Z,100.00
2022-10-22T23:33:33.412Z,100.00
2022-10-22T23:36:00.995Z,100.00
2022-10-22T23:38:27.537Z,100.00
2022-10-22T23:40:54.602Z,100.00
2022-10-22T23:43:21.128Z,100.00
2022-10-22T23:45:48.981Z,100.00
2022-10-22T23:48:15.600Z,100.00
2022-10-22T23:50:42.122Z,100.00
2022-10-22T23:53:08.689Z,100.00
2022-10-22T23:55:36.961Z,100.00
2022-10-22T23:58:03.609Z,100.00
